sim
Sign-in with your pilot id or email,
or register
Callsign
Passwort

Schedule Details

Flight Number: DLH2713 (2)
Departure: Hamburg Airport (EDDH) at 07:15
Arrival: Munich Airport (EDDM) at 08:30
Route: Lufthansa Passenger Schedule. Enter filed route here before submitting Pirep.

Weather Information
Getting current METAR information for EDDH 221950Z VRB02KT 9999 2400NW R15/1400D BCFG NSC 13/12 Q1006 NOSIG
Getting current METAR information for EDDM 221950Z VRB01KT CAVOK 17/15 Q1010 NOSIG

Schedule Frequency

Route Map